Time;durP1;ratioP1;P1;durP2;ratioP2;P2;SDS_P1;SDS_P2;PMS_P1;PMS_P2;Temp;Humidity;BMP_temperature;BMP_pressure;BME280_temperature;BME280_humidity;BME280_pressure;Samples;Min_cycle;Max_cycle;Signal;HPM_P1;HPM_P2
2023/09/04 00:01:41;;;;;;;3.58;1.65;;;19.30;61.50;21.00;102626.00;;;;5084939;28;20198;-78
2023/09/04 00:04:08;;;;;;;1.70;1.33;;;19.30;61.50;21.00;102624.00;;;;5087738;28;20338;-78
2023/09/04 00:06:35;;;;;;;2.70;1.88;;;19.20;61.50;21.00;102627.00;;;;5085683;28;20290;-79
2023/09/04 00:09:04;;;;;;;3.78;2.20;;;19.20;61.60;21.00;102620.00;;;;5087923;28;20929;-79
2023/09/04 00:11:31;;;;;;;2.20;1.40;;;19.20;61.70;20.90;102617.00;;;;5085733;28;21144;-79
2023/09/04 00:13:59;;;;;;;1.83;1.25;;;19.20;61.70;20.90;102613.00;;;;5086120;28;20198;-78
2023/09/04 00:16:26;;;;;;;2.38;1.52;;;19.20;61.70;20.90;102620.00;;;;5088384;28;20202;-79
2023/09/04 00:18:53;;;;;;;2.03;1.58;;;19.10;61.70;20.90;102622.00;;;;5088068;28;20575;-78
2023/09/04 00:21:20;;;;;;;1.67;1.42;;;19.10;61.70;20.90;102623.00;;;;5084071;28;20566;-79
2023/09/04 00:23:47;;;;;;;1.67;1.40;;;19.10;61.70;20.80;102623.00;;;;5078735;28;20236;-79
2023/09/04 00:26:14;;;;;;;1.73;1.60;;;19.10;61.70;20.80;102626.00;;;;5088768;28;20194;-79
2023/09/04 00:28:41;;;;;;;2.13;1.52;;;19.00;61.70;20.80;102622.00;;;;5085452;28;20672;-79
2023/09/04 00:31:09;;;;;;;2.00;1.73;;;19.00;61.80;20.70;102623.00;;;;5087554;28;20191;-79
2023/09/04 00:33:36;;;;;;;2.63;1.77;;;19.00;61.90;20.70;102623.00;;;;5088661;28;20205;-79
2023/09/04 00:36:04;;;;;;;3.53;1.92;;;19.00;61.90;20.70;102626.00;;;;5088251;28;20683;-79
2023/09/04 00:38:31;;;;;;;2.65;1.60;;;19.00;62.00;20.70;102625.00;;;;5085918;28;20195;-78
2023/09/04 00:40:58;;;;;;;2.72;1.83;;;18.90;62.00;20.70;102620.00;;;;5087143;28;20212;-79
2023/09/04 00:43:25;;;;;;;2.50;2.08;;;18.90;62.10;20.70;102628.00;;;;5088399;28;20225;-78
2023/09/04 00:45:52;;;;;;;1.85;1.45;;;18.90;62.10;20.70;102623.00;;;;5099764;28;20674;-79
2023/09/04 00:48:20;;;;;;;2.30;2.00;;;18.90;62.20;20.70;102627.00;;;;5080103;28;20206;-79
2023/09/04 00:50:47;;;;;;;1.83;1.63;;;18.90;62.40;20.70;102623.00;;;;5083642;28;20214;-79
2023/09/04 00:53:14;;;;;;;2.70;2.10;;;18.90;62.40;20.70;102620.00;;;;5082173;28;20226;-78
2023/09/04 00:55:44;;;;;;;3.42;2.58;;;18.90;62.50;20.70;102618.00;;;;5069439;28;20302;-80
2023/09/04 00:58:11;;;;;;;2.47;2.28;;;18.90;62.40;20.70;102618.00;;;;5086429;28;20574;-81
2023/09/04 01:00:38;;;;;;;2.60;2.38;;;18.90;62.40;20.70;102622.00;;;;5089352;28;20201;-81
2023/09/04 01:03:06;;;;;;;3.38;2.70;;;18.90;62.40;20.70;102619.00;;;;5088818;28;20226;-81
2023/09/04 01:05:34;;;;;;;2.85;2.65;;;18.90;62.50;20.70;102622.00;;;;5088848;28;20225;-81
2023/09/04 01:08:02;;;;;;;3.75;2.95;;;18.90;62.50;20.70;102619.00;;;;5084603;28;20582;-81
2023/09/04 01:10:40;;;;;;;2.55;2.28;;;18.90;62.50;20.60;102614.00;;;;5084158;28;20208;-81
2023/09/04 01:13:16;;;;;;;4.38;2.13;;;18.90;62.70;20.60;102617.00;;;;5086790;28;20652;-80
2023/09/04 01:15:44;;;;;;;2.92;2.63;;;18.90;62.60;20.70;102622.00;;;;5088386;28;20198;-81
2023/09/04 01:18:13;;;;;;;3.45;2.63;;;18.90;62.60;20.60;102618.00;;;;5088917;28;20197;-80
2023/09/04 01:20:42;;;;;;;4.18;3.20;;;18.90;62.60;20.60;102616.00;;;;5082166;28;20205;-80
2023/09/04 01:23:09;;;;;;;3.25;2.70;;;18.90;62.60;20.60;102611.00;;;;5088681;28;20218;-80
2023/09/04 01:25:45;;;;;;;3.72;2.90;;;18.90;62.50;20.60;102613.00;;;;5088462;28;20289;-80
2023/09/04 01:28:21;;;;;;;2.75;2.50;;;18.90;62.70;20.60;102621.00;;;;5079283;28;20195;-81
2023/09/04 01:31:02;;;;;;;4.18;2.58;;;18.90;62.70;20.50;102603.00;;;;5087591;28;20671;-81
2023/09/04 01:33:37;;;;;;;2.67;2.47;;;18.90;62.70;20.60;102618.00;;;;5082333;28;20585;-81
2023/09/04 01:36:14;;;;;;;2.85;2.47;;;18.90;62.60;20.50;102625.00;;;;5087422;28;20545;-81
2023/09/04 01:38:43;;;;;;;4.25;2.67;;;18.90;62.60;20.60;102614.00;;;;5088626;28;20193;-79
2023/09/04 01:41:10;;;;;;;3.17;2.65;;;18.80;62.50;20.60;102619.00;;;;5078005;28;20199;-79
2023/09/04 01:43:37;;;;;;;3.72;2.72;;;18.80;63.20;20.50;102616.00;;;;5085873;28;20639;-79
2023/09/04 01:46:05;;;;;;;2.88;2.58;;;18.80;62.50;20.50;102612.00;;;;5087634;28;20194;-79
2023/09/04 01:48:32;;;;;;;4.05;2.72;;;18.70;62.40;20.50;102612.00;;;;5087439;28;20198;-78
2023/09/04 01:50:59;;;;;;;2.53;2.33;;;18.80;62.50;20.50;102610.00;;;;5079895;28;20217;-78
2023/09/04 01:53:27;;;;;;;3.28;2.22;;;18.70;62.40;20.40;102608.00;;;;5082712;28;20221;-78
2023/09/04 01:55:54;;;;;;;2.33;2.13;;;18.70;62.50;20.50;102603.00;;;;5082752;28;20206;-79
2023/09/04 01:58:21;;;;;;;3.35;2.75;;;18.70;62.50;20.40;102610.00;;;;5074925;28;20205;-78
2023/09/04 02:00:48;;;;;;;2.85;2.47;;;18.70;62.50;20.40;102600.00;;;;5085833;28;20201;-78
2023/09/04 02:03:15;;;;;;;2.75;2.08;;;18.60;62.50;20.40;102606.00;;;;5086108;28;20221;-79
2023/09/04 02:05:42;;;;;;;3.67;3.08;;;18.60;62.60;20.40;102601.00;;;;5088085;28;20194;-78
2023/09/04 02:08:09;;;;;;;3.60;2.63;;;18.60;62.60;20.40;102616.00;;;;5084210;28;20199;-78
2023/09/04 02:10:38;;;;;;;2.50;2.30;;;18.60;62.60;20.30;102607.00;;;;5087185;28;20205;-78
2023/09/04 02:13:06;;;;;;;2.75;2.28;;;18.60;62.60;20.30;102606.00;;;;5087282;28;20206;-78
2023/09/04 02:15:33;;;;;;;2.45;2.22;;;18.60;62.60;20.30;102609.00;;;;5082305;28;20206;-79
2023/09/04 02:18:02;;;;;;;3.05;2.47;;;18.50;62.70;20.30;102611.00;;;;5086590;28;20201;-78
2023/09/04 02:20:29;;;;;;;3.13;1.85;;;18.50;62.60;20.20;102603.00;;;;5075646;28;20213;-79
2023/09/04 02:22:57;;;;;;;2.58;1.80;;;18.50;62.60;20.20;102609.00;;;;5092363;28;20244;-81
2023/09/04 02:25:25;;;;;;;5.07;2.17;;;18.40;62.60;20.20;102612.00;;;;5091292;28;20206;-80
2023/09/04 02:27:54;;;;;;;3.53;2.10;;;18.40;62.60;20.20;102608.00;;;;5085082;28;20210;-81
2023/09/04 02:30:20;;;;;;;2.00;1.85;;;18.40;62.70;20.20;102605.00;;;;5079857;28;20225;-80
2023/09/04 02:32:47;;;;;;;2.13;1.90;;;18.40;62.70;20.20;102601.00;;;;5090579;28;20574;-80
2023/09/04 02:35:14;;;;;;;2.25;1.90;;;18.40;62.70;20.10;102605.00;;;;5090503;28;20194;-80
2023/09/04 02:37:44;;;;;;;3.15;2.15;;;18.30;62.70;20.10;102601.00;;;;5090195;28;20664;-81
2023/09/04 02:40:12;;;;;;;3.95;1.88;;;18.30;62.80;20.10;102595.00;;;;5081058;28;20202;-82
2023/09/04 02:42:40;;;;;;;2.35;1.98;;;18.30;62.80;20.10;102597.00;;;;5087919;28;20195;-81
2023/09/04 02:45:10;;;;;;;2.67;2.13;;;18.30;62.80;20.00;102587.00;;;;5089881;28;20194;-80
2023/09/04 02:47:37;;;;;;;3.75;1.95;;;18.30;62.80;20.00;102588.00;;;;5092558;28;20198;-81
2023/09/04 02:50:07;;;;;;;2.55;2.35;;;18.30;62.80;20.00;102594.00;;;;5092179;28;20198;-80
2023/09/04 02:52:34;;;;;;;2.35;2.08;;;18.20;62.80;20.00;102586.00;;;;5079723;28;20245;-81
2023/09/04 02:55:02;;;;;;;4.00;2.15;;;18.20;62.80;20.00;102579.00;;;;5091464;28;20267;-80
2023/09/04 02:57:31;;;;;;;2.42;2.22;;;18.20;62.90;20.00;102581.00;;;;5091205;28;20725;-80
2023/09/04 02:59:58;;;;;;;3.13;2.65;;;18.20;62.90;20.00;102580.00;;;;5089935;28;20742;-81
2023/09/04 03:02:27;;;;;;;7.78;3.20;;;18.20;62.90;20.00;102573.00;;;;5091198;28;20206;-81
2023/09/04 03:04:54;;;;;;;2.30;2.10;;;18.10;63.00;20.00;102578.00;;;;5088755;28;20229;-80
2023/09/04 03:07:22;;;;;;;3.90;3.00;;;18.20;63.00;19.90;102572.00;;;;5089562;28;20785;-80
2023/09/04 03:09:55;;;;;;;4.07;3.67;;;18.10;63.10;19.90;102571.00;;;;5089541;28;20194;-81
2023/09/04 03:12:24;;;;;;;4.50;4.05;;;18.10;63.20;19.90;102562.00;;;;5070898;28;20187;-80
2023/09/04 03:14:56;;;;;;;4.07;3.67;;;18.10;63.30;19.90;102568.00;;;;5073209;28;20190;-80
2023/09/04 03:17:24;;;;;;;3.40;3.10;;;18.20;63.60;20.00;102560.00;;;;5090295;28;20217;-81
2023/09/04 03:19:55;;;;;;;3.58;3.22;;;18.20;63.50;19.90;102551.00;;;;5089952;28;20200;-80
2023/09/04 03:22:24;;;;;;;3.22;2.92;;;18.20;63.60;20.00;102553.00;;;;5087152;28;20195;-80
2023/09/04 03:24:51;;;;;;;3.60;2.97;;;18.20;63.60;20.00;102547.00;;;;5090078;28;20226;-80
2023/09/04 03:27:19;;;;;;;3.80;3.38;;;18.20;63.60;20.00;102550.00;;;;5088510;28;20196;-80
2023/09/04 03:29:46;;;;;;;3.25;2.95;;;18.20;63.60;20.00;102545.00;;;;5089908;28;20205;-81
2023/09/04 03:32:13;;;;;;;3.63;2.83;;;18.20;63.60;20.00;102548.00;;;;5086147;28;20190;-81
2023/09/04 03:34:40;;;;;;;3.72;3.33;;;18.20;63.60;20.00;102546.00;;;;5089830;28;20194;-80
2023/09/04 03:37:08;;;;;;;3.50;3.05;;;18.20;63.60;20.00;102542.00;;;;5087854;28;20198;-80
2023/09/04 03:39:37;;;;;;;3.58;3.28;;;18.30;63.70;20.00;102538.00;;;;5090518;28;20679;-80
2023/09/04 03:42:05;;;;;;;4.70;3.58;;;18.30;63.60;20.10;102532.00;;;;5089218;28;20206;-80
2023/09/04 03:44:32;;;;;;;3.33;3.03;;;18.30;63.70;20.10;102531.00;;;;5079057;28;20222;-81
2023/09/04 03:46:59;;;;;;;3.83;3.42;;;18.30;63.70;20.10;102537.00;;;;5080041;28;20206;-81
2023/09/04 03:49:26;;;;;;;4.43;3.83;;;18.30;63.60;20.10;102527.00;;;;5077235;28;20191;-80
2023/09/04 03:51:53;;;;;;;4.57;3.30;;;18.30;63.60;20.10;102526.00;;;;5090353;28;20194;-80
2023/09/04 03:54:22;;;;;;;6.35;3.17;;;18.30;63.50;20.00;102523.00;;;;5090340;28;20198;-81
2023/09/04 03:56:49;;;;;;;3.50;3.08;;;18.30;63.50;20.00;102525.00;;;;5090388;28;20198;-81
2023/09/04 03:59:16;;;;;;;3.67;3.05;;;18.30;63.40;20.00;102521.00;;;;5087762;28;20198;-81
2023/09/04 04:01:43;;;;;;;4.03;3.53;;;18.30;63.40;20.00;102520.00;;;;5087374;28;20244;-81
2023/09/04 04:04:11;;;;;;;3.50;3.20;;;18.30;63.30;20.00;102519.00;;;;5089855;28;20598;-81
2023/09/04 04:06:38;;;;;;;5.35;4.03;;;18.30;63.30;20.00;102522.00;;;;5089331;28;20199;-81
2023/09/04 04:09:06;;;;;;;5.40;3.40;;;18.20;63.30;20.00;102526.00;;;;5090241;28;20198;-81
2023/09/04 04:11:36;;;;;;;5.75;3.65;;;18.30;63.30;20.00;102508.00;;;;5089005;28;20579;-81
2023/09/04 04:14:04;;;;;;;4.10;3.13;;;18.30;63.40;20.00;102522.00;;;;5085005;28;20288;-81
2023/09/04 04:16:34;;;;;;;3.53;3.22;;;18.20;63.30;20.00;102526.00;;;;5082408;28;20580;-80
2023/09/04 04:19:01;;;;;;;3.65;3.00;;;18.20;63.30;20.00;102525.00;;;;5078835;28;20198;-81
2023/09/04 04:21:28;;;;;;;3.58;3.28;;;18.20;63.20;20.00;102528.00;;;;5088029;28;20203;-81
2023/09/04 04:23:55;;;;;;;3.85;3.38;;;18.20;63.20;19.90;102526.00;;;;5077778;28;20233;-81
2023/09/04 04:26:22;;;;;;;3.70;3.40;;;18.20;63.30;19.90;102527.00;;;;5086735;28;20199;-81
2023/09/04 04:28:51;;;;;;;3.90;3.28;;;18.20;63.30;19.90;102525.00;;;;5086588;28;20201;-81
2023/09/04 04:31:17;;;;;;;3.40;3.05;;;18.20;63.30;19.90;102517.00;;;;5087781;28;20206;-81
2023/09/04 04:33:45;;;;;;;4.03;3.47;;;18.20;63.30;19.90;102523.00;;;;5087205;28;20198;-81
2023/09/04 04:36:12;;;;;;;3.58;3.28;;;18.10;63.30;19.90;102532.00;;;;5087271;28;20210;-80
2023/09/04 04:38:39;;;;;;;4.50;3.65;;;18.10;63.30;19.90;102526.00;;;;5085458;28;20213;-81
2023/09/04 04:41:06;;;;;;;3.45;3.15;;;18.10;63.40;19.90;102525.00;;;;5088738;28;20194;-81
2023/09/04 04:43:33;;;;;;;3.85;3.40;;;18.10;63.50;19.90;102525.00;;;;5088190;28;20233;-82
2023/09/04 04:46:02;;;;;;;3.88;3.08;;;18.10;63.60;19.90;102520.00;;;;5087522;28;20197;-81
2023/09/04 04:48:29;;;;;;;4.15;3.47;;;18.10;63.60;19.90;102519.00;;;;5087690;28;20202;-81
2023/09/04 04:50:56;;;;;;;4.53;3.97;;;18.10;63.60;19.90;102518.00;;;;5087503;28;20255;-81
2023/09/04 04:53:23;;;;;;;3.65;3.35;;;18.10;63.50;19.90;102523.00;;;;5088686;28;20229;-82
2023/09/04 04:55:50;;;;;;;4.20;3.20;;;18.10;63.50;19.90;102515.00;;;;5082973;28;20194;-81
2023/09/04 04:58:16;;;;;;;4.63;3.65;;;18.20;63.60;19.90;102518.00;;;;5086180;28;20225;-81
2023/09/04 05:00:43;;;;;;;10.95;3.63;;;18.10;63.50;19.90;102517.00;;;;5082942;28;20187;-81
2023/09/04 05:03:12;;;;;;;4.35;3.53;;;18.10;63.50;19.90;102510.00;;;;5079045;28;20707;-81
2023/09/04 05:05:44;;;;;;;5.05;3.42;;;18.10;63.50;19.80;102506.00;;;;5088395;28;20226;-81
2023/09/04 05:08:11;;;;;;;3.70;3.20;;;18.10;63.60;19.90;102503.00;;;;5084454;28;20221;-82
2023/09/04 05:10:38;;;;;;;3.70;3.40;;;18.10;63.50;19.90;102509.00;;;;5087194;28;20201;-78
2023/09/04 05:13:05;;;;;;;4.50;3.80;;;18.10;63.50;19.90;102503.00;;;;5088196;28;20201;-81
2023/09/04 05:15:32;;;;;;;5.38;3.35;;;18.10;63.60;19.90;102505.00;;;;5078295;28;20190;-80
2023/09/04 05:17:59;;;;;;;4.03;3.63;;;18.10;63.80;19.90;102511.00;;;;5079852;28;20867;-81
2023/09/04 05:20:27;;;;;;;7.00;4.82;;;18.10;63.80;19.90;102509.00;;;;5087155;28;20297;-83
2023/09/04 05:22:54;;;;;;;4.00;3.60;;;18.10;63.90;19.90;102509.00;;;;5078888;28;20191;-83
2023/09/04 05:25:21;;;;;;;5.13;4.18;;;18.10;64.00;19.90;102512.00;;;;5082861;28;20704;-84
2023/09/04 05:27:48;;;;;;;4.28;3.88;;;18.10;64.10;20.00;102514.00;;;;5077647;28;20666;-88
2023/09/04 05:30:16;;;;;;;4.60;4.03;;;18.10;64.10;20.00;102520.00;;;;5081778;28;20208;-85
2023/09/04 05:32:43;;;;;;;5.28;4.25;;;18.20;64.20;20.00;102524.00;;;;5083363;28;20194;-83
2023/09/04 05:35:10;;;;;;;3.45;3.15;;;18.20;64.10;20.10;102522.00;;;;5086540;28;20209;-83
2023/09/04 05:37:40;;;;;;;4.00;3.50;;;18.20;64.10;20.10;102520.00;;;;5088305;28;20190;-83
2023/09/04 05:40:09;;;;;;;4.07;3.50;;;18.30;64.20;20.10;102520.00;;;;5077660;28;20198;-84
2023/09/04 05:42:37;;;;;;;3.60;3.30;;;18.30;64.10;20.10;102530.00;;;;5081569;28;20194;-83
2023/09/04 05:45:06;;;;;;;4.60;3.53;;;18.30;64.20;20.10;102530.00;;;;5081114;28;20233;-83
2023/09/04 05:47:33;;;;;;;4.15;3.63;;;18.40;64.30;20.20;102529.00;;;;5075063;28;20568;-81
2023/09/04 05:50:00;;;;;;;3.65;3.03;;;18.40;64.30;20.20;102527.00;;;;5078922;28;20186;-81
2023/09/04 05:52:27;;;;;;;5.78;3.67;;;18.40;64.20;20.20;102528.00;;;;5079423;28;20304;-80
2023/09/04 05:54:56;;;;;;;5.10;3.70;;;18.40;64.20;20.30;102532.00;;;;5077625;28;20195;-81
2023/09/04 05:57:23;;;;;;;3.65;3.20;;;18.40;64.20;20.30;102528.00;;;;5090469;28;20194;-81
2023/09/04 05:59:52;;;;;;;4.20;3.30;;;18.50;64.20;20.30;102525.00;;;;5094406;28;20198;-80
2023/09/04 06:02:19;;;;;;;3.88;3.38;;;18.50;64.30;20.40;102524.00;;;;5093617;28;20633;-80
2023/09/04 06:04:46;;;;;;;4.35;3.58;;;18.50;64.20;20.50;102529.00;;;;5093106;28;20234;-80
2023/09/04 06:07:14;;;;;;;3.88;3.40;;;18.60;64.30;20.50;102522.00;;;;5092646;28;20213;-79
2023/09/04 06:09:43;;;;;;;4.22;2.95;;;18.60;64.30;20.50;102520.00;;;;5093771;28;20206;-80
2023/09/04 06:12:12;;;;;;;3.97;3.50;;;18.70;64.40;20.50;102526.00;;;;5092688;28;20198;-80
2023/09/04 06:14:39;;;;;;;5.30;4.00;;;18.70;64.50;20.60;102533.00;;;;5092144;28;20202;-80
2023/09/04 06:17:08;;;;;;;4.43;3.90;;;18.80;64.60;20.70;102540.00;;;;5088728;28;20194;-80
2023/09/04 06:19:35;;;;;;;7.22;3.90;;;18.80;64.50;20.70;102551.00;;;;5094626;28;20209;-80
2023/09/04 06:22:01;;;;;;;5.22;3.58;;;18.90;64.50;20.80;102539.00;;;;5095364;28;20190;-80
2023/09/04 06:24:28;;;;;;;6.30;3.78;;;18.90;64.50;20.80;102547.00;;;;5094328;28;20214;-80
2023/09/04 06:26:57;;;;;;;4.68;3.50;;;19.00;64.60;20.90;102545.00;;;;5087202;28;20225;-80
2023/09/04 06:29:26;;;;;;;4.55;3.17;;;19.00;64.60;20.90;102542.00;;;;5085136;28;20202;-80
2023/09/04 06:31:53;;;;;;;4.32;3.85;;;19.10;64.70;21.00;102538.00;;;;5094809;28;20225;-79
2023/09/04 06:34:20;;;;;;;4.93;3.72;;;19.10;64.70;21.00;102539.00;;;;5088205;28;20190;-80
2023/09/04 06:36:46;;;;;;;5.05;3.83;;;19.20;64.80;21.10;102538.00;;;;5092250;28;20659;-80
2023/09/04 06:39:13;;;;;;;5.05;3.90;;;19.20;64.70;21.20;102540.00;;;;5084978;28;20608;-80
2023/09/04 06:41:41;;;;;;;5.13;3.78;;;19.30;64.70;21.20;102535.00;;;;5089179;28;20202;-80
2023/09/04 06:44:08;;;;;;;3.88;3.38;;;19.40;64.90;21.30;102534.00;;;;5094256;28;20858;-80
2023/09/04 06:46:36;;;;;;;4.13;3.72;;;19.50;64.90;21.40;102536.00;;;;5094133;28;20190;-80
2023/09/04 06:49:04;;;;;;;5.00;4.50;;;19.50;65.00;21.50;102540.00;;;;5087865;28;20210;-80
2023/09/04 06:51:31;;;;;;;4.95;3.63;;;19.60;65.00;21.50;102528.00;;;;5093505;28;20209;-80
2023/09/04 06:53:59;;;;;;;5.63;4.75;;;19.60;64.90;21.60;102527.00;;;;5094407;28;20268;-80
2023/09/04 06:56:26;;;;;;;5.13;4.20;;;19.80;64.90;21.70;102526.00;;;;5092563;28;20202;-80
2023/09/04 06:58:53;;;;;;;5.97;4.68;;;19.80;64.80;21.80;102528.00;;;;5094367;28;20221;-80
2023/09/04 07:01:20;;;;;;;4.78;4.25;;;19.90;64.90;21.80;102523.00;;;;5091432;28;20726;-80
2023/09/04 07:03:48;;;;;;;4.22;3.72;;;20.00;64.70;21.90;102526.00;;;;5093500;28;20216;-80
2023/09/04 07:06:15;;;;;;;4.43;3.95;;;20.10;64.80;22.00;102529.00;;;;5088598;28;20226;-80
2023/09/04 07:08:42;;;;;;;4.90;4.40;;;20.10;64.50;22.00;102520.00;;;;5090944;28;20683;-80
2023/09/04 07:11:09;;;;;;;4.72;4.32;;;20.20;64.50;22.10;102525.00;;;;5090546;28;20201;-80
2023/09/04 07:13:36;;;;;;;6.68;4.68;;;20.30;64.50;22.20;102523.00;;;;5089792;28;20205;-80
2023/09/04 07:16:04;;;;;;;4.50;3.78;;;20.40;64.60;22.30;102517.00;;;;5082850;28;20190;-80
2023/09/04 07:18:31;;;;;;;3.80;3.40;;;20.50;64.60;22.40;102517.00;;;;5092094;28;20199;-80
2023/09/04 07:20:59;;;;;;;5.50;4.63;;;20.60;64.60;22.50;102524.00;;;;5088847;28;20205;-80
2023/09/04 07:23:27;;;;;;;4.28;3.47;;;20.60;64.40;22.60;102520.00;;;;5091659;28;20589;-80
2023/09/04 07:25:55;;;;;;;6.40;4.35;;;20.70;64.30;22.60;102522.00;;;;5089163;28;20218;-80
2023/09/04 07:28:22;;;;;;;4.90;3.60;;;20.80;64.30;22.70;102526.00;;;;5088549;28;20232;-80
2023/09/04 07:30:49;;;;;;;6.00;4.45;;;20.90;64.30;22.80;102533.00;;;;5096868;28;20208;-80
2023/09/04 07:33:17;;;;;;;5.55;3.83;;;21.00;64.40;22.90;102534.00;;;;5104777;28;20198;-80
2023/09/04 07:35:44;;;;;;;4.43;3.72;;;21.10;64.10;23.00;102533.00;;;;5090635;28;20197;-80
2023/09/04 07:38:12;;;;;;;6.20;4.97;;;21.20;64.00;23.10;102524.00;;;;5090195;28;20202;-80
2023/09/04 07:40:40;;;;;;;6.07;4.35;;;21.20;63.90;23.10;102530.00;;;;5089471;28;20374;-80
2023/09/04 07:43:07;;;;;;;6.18;4.40;;;21.30;63.80;23.20;102530.00;;;;5090076;28;20664;-81
2023/09/04 07:45:34;;;;;;;5.80;4.38;;;21.40;63.70;23.30;102524.00;;;;5087928;28;20214;-80
2023/09/04 07:48:02;;;;;;;4.40;4.00;;;21.50;63.70;23.40;102524.00;;;;5089455;28;20823;-80
2023/09/04 07:50:29;;;;;;;5.35;4.22;;;21.50;63.60;23.40;102525.00;;;;5089509;28;20299;-80
2023/09/04 07:52:56;;;;;;;5.78;4.07;;;21.70;63.60;23.50;102523.00;;;;4657766;28;20222;-80
2023/09/04 07:55:25;;;;;;;5.00;4.20;;;21.70;63.50;23.60;102520.00;;;;5089960;28;20194;-80
2023/09/04 07:57:52;;;;;;;4.63;3.53;;;21.80;63.50;23.70;102523.00;;;;5087960;28;20190;-80
2023/09/04 08:00:21;;;;;;;4.55;3.75;;;21.80;63.40;23.80;102520.00;;;;5090318;28;20205;-79
2023/09/04 08:02:48;;;;;;;5.13;3.80;;;21.90;63.40;23.80;102522.00;;;;5088429;28;20190;-80
2023/09/04 08:05:16;;;;;;;5.93;4.50;;;22.00;63.20;23.90;102532.00;;;;5100508;28;20233;-80
2023/09/04 08:07:43;;;;;;;6.85;4.18;;;22.10;63.00;23.90;102534.00;;;;5089930;28;20201;-80
2023/09/04 08:10:10;;;;;;;6.60;3.90;;;22.20;63.00;24.00;102533.00;;;;5090169;28;20291;-80
2023/09/04 08:12:38;;;;;;;6.78;4.70;;;22.20;63.10;24.00;102534.00;;;;5088502;28;20214;-80
2023/09/04 08:15:08;;;;;;;5.53;3.90;;;22.30;63.10;24.10;102526.00;;;;5087579;28;20572;-80
2023/09/04 08:17:36;;;;;;;5.25;4.72;;;22.40;63.10;24.20;102527.00;;;;5087356;28;20203;-80
2023/09/04 08:20:03;;;;;;;5.25;4.03;;;22.40;62.80;24.30;102534.00;;;;5088265;28;20202;-80
2023/09/04 08:22:31;;;;;;;6.03;4.88;;;22.50;62.70;24.30;102528.00;;;;5090175;28;20198;-80
2023/09/04 08:24:58;;;;;;;10.00;4.70;;;22.60;62.70;24.40;102526.00;;;;5088383;28;20260;-80
2023/09/04 08:27:25;;;;;;;4.93;4.30;;;22.70;62.60;24.50;102521.00;;;;5087624;28;21025;-80
2023/09/04 08:29:53;;;;;;;4.45;3.90;;;22.80;62.50;24.60;102524.00;;;;5083680;28;20613;-80
2023/09/04 08:32:20;;;;;;;4.50;3.70;;;22.80;62.40;24.70;102530.00;;;;5089329;28;20241;-80
2023/09/04 08:34:47;;;;;;;7.78;4.57;;;23.00;62.50;24.80;102532.00;;;;5080535;28;20529;-80
2023/09/04 08:37:14;;;;;;;5.47;3.83;;;23.00;62.50;24.90;102532.00;;;;5084536;28;20195;-80
2023/09/04 08:39:41;;;;;;;4.32;3.40;;;23.10;62.50;25.00;102536.00;;;;5087013;28;20205;-80
2023/09/04 08:42:08;;;;;;;4.82;4.03;;;23.30;62.50;25.10;102535.00;;;;5087916;28;20961;-80
2023/09/04 08:44:37;;;;;;;8.15;4.32;;;23.30;62.30;25.20;102532.00;;;;5079155;28;20202;-80
2023/09/04 08:47:07;;;;;;;5.80;3.95;;;23.40;62.20;25.30;102533.00;;;;5085476;28;20687;-80
2023/09/04 08:49:34;;;;;;;4.88;4.15;;;23.60;62.20;25.40;102528.00;;;;5080960;28;20219;-81
2023/09/04 08:52:02;;;;;;;4.80;3.92;;;23.70;62.20;25.50;102528.00;;;;5088114;28;20576;-80
2023/09/04 08:54:30;;;;;;;6.68;3.58;;;23.70;61.90;25.60;102527.00;;;;5087941;28;20222;-81
2023/09/04 08:56:58;;;;;;;5.25;4.25;;;23.80;61.90;25.70;102523.00;;;;5075352;28;20186;-80
2023/09/04 08:59:25;;;;;;;4.85;3.80;;;24.00;61.90;25.80;102524.00;;;;5086997;28;20981;-80
2023/09/04 09:01:53;;;;;;;4.78;3.75;;;24.00;61.60;25.90;102521.00;;;;5086170;28;20224;-81
2023/09/04 09:04:22;;;;;;;4.18;3.50;;;24.20;61.50;26.00;102510.00;;;;5087700;28;20222;-80
2023/09/04 09:06:51;;;;;;;3.85;3.45;;;24.30;61.20;26.10;102513.00;;;;5086667;28;20226;-81
2023/09/04 09:09:21;;;;;;;4.20;3.30;;;24.40;61.10;26.20;102512.00;;;;5088147;28;20199;-80
2023/09/04 09:11:53;;;;;;;3.22;2.92;;;24.50;61.00;26.30;102513.00;;;;5086913;28;20220;-80
2023/09/04 09:14:21;;;;;;;3.92;2.72;;;24.60;60.90;26.40;102511.00;;;;5084380;28;20275;-81
2023/09/04 09:16:48;;;;;;;2.78;2.53;;;24.70;60.60;26.50;102499.00;;;;5086824;28;20896;-81
2023/09/04 09:19:15;;;;;;;5.22;3.67;;;24.90;60.40;26.60;102499.00;;;;5087683;28;20652;-80
2023/09/04 09:21:44;;;;;;;4.05;2.83;;;25.00;60.20;26.70;102499.00;;;;5087447;28;20672;-81
2023/09/04 09:24:17;;;;;;;5.18;3.33;;;25.10;59.80;26.80;102502.00;;;;5086912;28;20202;-80
2023/09/04 09:26:46;;;;;;;3.72;2.75;;;25.20;59.50;26.90;102512.00;;;;5087947;28;20218;-80
2023/09/04 09:29:14;;;;;;;3.70;2.80;;;25.30;59.50;27.00;102512.00;;;;5085355;28;20915;-81
2023/09/04 09:31:45;;;;;;;5.43;3.17;;;25.40;59.50;27.10;102520.00;;;;5083490;28;20195;-81
2023/09/04 09:34:13;;;;;;;3.30;2.75;;;25.50;59.40;27.20;102520.00;;;;5103887;28;20612;-81
2023/09/04 09:36:40;;;;;;;3.50;3.10;;;25.70;59.30;27.40;102523.00;;;;5085355;28;20682;-81
2023/09/04 09:39:09;;;;;;;3.45;2.88;;;25.80;59.10;27.50;102517.00;;;;5078634;28;20199;-80
2023/09/04 09:41:36;;;;;;;3.13;2.33;;;25.90;58.70;27.60;102525.00;;;;5087299;28;20198;-80
2023/09/04 09:44:04;;;;;;;4.25;3.35;;;26.00;58.60;27.70;102518.00;;;;5087002;28;20877;-80
2023/09/04 09:46:35;;;;;;;3.40;2.92;;;26.10;58.40;27.70;102519.00;;;;5085809;28;20311;-81
2023/09/04 09:49:02;;;;;;;5.10;3.00;;;26.20;58.10;27.80;102523.00;;;;5079815;28;20197;-81
2023/09/04 09:51:33;;;;;;;4.50;3.08;;;26.30;58.00;27.90;102517.00;;;;5087302;28;20198;-81
2023/09/04 09:54:00;;;;;;;3.20;2.78;;;26.40;57.90;28.00;102507.00;;;;5087979;28;20225;-80
2023/09/04 09:56:29;;;;;;;2.72;2.50;;;26.50;58.00;28.10;102510.00;;;;5086635;28;20202;-80
2023/09/04 09:58:58;;;;;;;4.10;3.20;;;26.60;58.00;28.30;102514.00;;;;5085947;28;20682;-81
2023/09/04 10:01:31;;;;;;;3.42;3.00;;;26.80;57.90;28.40;102505.00;;;;5084505;28;20771;-81
2023/09/04 10:04:00;;;;;;;2.90;2.50;;;26.90;57.70;28.40;102495.00;;;;5086047;28;20250;-81
2023/09/04 10:06:34;;;;;;;5.75;2.92;;;27.00;57.40;28.50;102494.00;;;;5087165;28;20222;-81
2023/09/04 10:09:01;;;;;;;3.45;2.67;;;27.10;57.20;28.60;102487.00;;;;5087378;28;20209;-80
2023/09/04 10:11:34;;;;;;;3.35;2.67;;;27.10;57.10;28.70;102484.00;;;;5085177;28;20221;-80
2023/09/04 10:14:11;;;;;;;2.95;2.67;;;27.30;56.90;28.80;102489.00;;;;5085714;28;20685;-81
2023/09/04 10:16:47;;;;;;;2.53;2.33;;;27.40;56.70;28.90;102480.00;;;;5074297;28;20202;-81
2023/09/04 10:19:18;;;;;;;4.10;2.72;;;27.40;56.20;29.00;102483.00;;;;5086628;28;20190;-80
2023/09/04 10:21:53;;;;;;;5.47;3.17;;;27.60;56.50;29.00;102487.00;;;;5083606;28;20304;-80
2023/09/04 10:24:35;;;;;;;2.42;2.15;;;27.60;56.10;29.10;102486.00;;;;5084213;28;20904;-80
2023/09/04 10:27:09;;;;;;;2.67;2.40;;;27.70;56.10;29.20;102476.00;;;;5085888;28;20271;-81
2023/09/04 10:29:47;;;;;;;2.70;2.45;;;27.80;55.70;29.20;102465.00;;;;5086689;28;20205;-81
2023/09/04 10:32:14;;;;;;;2.50;2.30;;;27.80;55.30;29.30;102477.00;;;;5079657;28;20206;-81
2023/09/04 10:34:42;;;;;;;3.65;2.20;;;27.90;55.40;29.30;102475.00;;;;5087099;28;20221;-80
2023/09/04 10:37:12;;;;;;;4.63;2.47;;;28.00;55.40;29.30;102481.00;;;;5085391;28;20209;-81
2023/09/04 10:39:40;;;;;;;3.78;2.20;;;28.00;54.90;29.40;102481.00;;;;5086390;28;20198;-81
2023/09/04 10:42:10;;;;;;;2.40;2.20;;;28.00;54.80;29.40;102477.00;;;;5088258;28;20547;-80
2023/09/04 10:44:48;;;;;;;3.15;2.20;;;28.00;54.50;29.40;102472.00;;;;5089841;28;20209;-80
2023/09/04 10:47:16;;;;;;;2.58;2.05;;;28.10;54.00;29.50;102475.00;;;;5088663;28;20228;-81
2023/09/04 10:49:43;;;;;;;2.90;2.20;;;28.20;54.80;29.60;102474.00;;;;5089770;28;20202;-82
2023/09/04 10:52:11;;;;;;;2.50;2.10;;;28.20;55.10;29.60;102471.00;;;;5090386;28;20205;-80